createdAt,value
2019-03-27T00:00:28.160Z,8.18
2019-03-27T00:02:59.624Z,8.20
2019-03-27T00:05:31.331Z,7.37
2019-03-27T00:08:02.775Z,8.00
2019-03-27T00:10:34.589Z,7.40
2019-03-27T00:13:06.779Z,8.25
2019-03-27T00:15:38.516Z,7.17
2019-03-27T00:18:10.070Z,7.50
2019-03-27T00:20:41.473Z,7.53
2019-03-27T00:23:12.925Z,7.80
2019-03-27T00:25:44.417Z,8.67
2019-03-27T00:28:16.156Z,8.23
2019-03-27T00:30:47.628Z,8.37
2019-03-27T00:33:19.292Z,8.05
2019-03-27T00:35:50.693Z,8.90
2019-03-27T00:38:22.348Z,9.33
2019-03-27T00:40:53.844Z,9.00
2019-03-27T00:43:25.358Z,8.10
2019-03-27T00:45:56.819Z,8.60
2019-03-27T00:48:28.511Z,8.57
2019-03-27T00:50:59.956Z,7.80
2019-03-27T00:53:31.439Z,8.47
2019-03-27T00:56:02.881Z,8.47
2019-03-27T00:58:34.399Z,8.60
2019-03-27T01:01:14.163Z,8.10
2019-03-27T01:03:45.771Z,7.80
2019-03-27T01:06:17.592Z,7.90
2019-03-27T01:08:48.986Z,9.13
2019-03-27T01:11:20.391Z,9.03
2019-03-27T01:13:51.918Z,8.07
2019-03-27T01:16:23.510Z,9.03
2019-03-27T01:18:54.930Z,9.23
2019-03-27T01:21:26.622Z,8.77
2019-03-27T01:23:58.040Z,8.87
2019-03-27T01:26:29.506Z,8.70
2019-03-27T01:29:02.218Z,8.20
2019-03-27T01:31:33.622Z,8.73
2019-03-27T01:34:05.078Z,9.23
2019-03-27T01:36:36.746Z,8.60
2019-03-27T01:39:09.296Z,9.80
2019-03-27T01:41:40.758Z,9.17
2019-03-27T01:44:12.758Z,9.60
2019-03-27T01:46:44.162Z,8.87
2019-03-27T01:49:15.901Z,8.18
2019-03-27T01:51:47.399Z,9.87
2019-03-27T01:54:18.870Z,8.67
2019-03-27T01:56:50.581Z,9.10
2019-03-27T01:59:22.032Z,9.20
2019-03-27T02:01:53.600Z,9.50
2019-03-27T02:04:25.022Z,9.70
2019-03-27T02:06:56.810Z,9.43
2019-03-27T02:09:28.210Z,9.13
2019-03-27T02:11:59.710Z,9.47
2019-03-27T02:14:31.255Z,8.77
2019-03-27T02:17:03.142Z,9.57
2019-03-27T02:19:34.725Z,9.30
2019-03-27T02:22:06.954Z,9.43
2019-03-27T02:24:38.673Z,8.60
2019-03-27T02:27:10.094Z,9.80
2019-03-27T02:29:41.692Z,9.47
2019-03-27T02:32:13.174Z,9.18
2019-03-27T02:34:44.715Z,9.60
2019-03-27T02:37:16.101Z,9.28
2019-03-27T02:39:47.812Z,8.80
2019-03-27T02:42:19.294Z,9.13
2019-03-27T02:44:50.843Z,10.30
2019-03-27T02:47:22.237Z,10.10
2019-03-27T02:49:53.811Z,9.77
2019-03-27T02:52:25.247Z,9.67
2019-03-27T02:54:57.063Z,10.03
2019-03-27T02:57:28.433Z,9.77
2019-03-27T02:59:59.853Z,10.30
2019-03-27T03:02:31.261Z,9.47
2019-03-27T03:05:03.160Z,9.93
2019-03-27T03:07:34.694Z,9.10
2019-03-27T03:10:07.154Z,10.10
2019-03-27T03:12:38.885Z,9.97
2019-03-27T03:15:10.995Z,9.97
2019-03-27T03:17:42.683Z,10.43
2019-03-27T03:20:14.502Z,10.20
2019-03-27T03:22:45.940Z,9.70
2019-03-27T03:25:17.540Z,10.40
2019-03-27T03:27:48.970Z,9.50
2019-03-27T03:30:20.378Z,10.80
2019-03-27T03:32:51.914Z,10.70
2019-03-27T03:35:23.329Z,9.93
2019-03-27T03:37:54.987Z,10.33
2019-03-27T03:40:26.367Z,9.90
2019-03-27T03:42:58.043Z,10.30
2019-03-27T03:45:29.508Z,10.07
2019-03-27T03:48:00.921Z,10.73
2019-03-27T03:50:41.907Z,10.80
2019-03-27T03:53:15.602Z,10.55
2019-03-27T03:55:47.153Z,9.43
2019-03-27T03:58:20.121Z,10.68
2019-03-27T04:00:52.502Z,10.07
2019-03-27T04:03:27.186Z,11.20
2019-03-27T04:05:58.910Z,10.17
2019-03-27T04:08:30.379Z,10.70
2019-03-27T04:11:03.229Z,10.43
2019-03-27T04:13:34.900Z,10.60
2019-03-27T04:16:06.722Z,9.73
2019-03-27T04:18:38.148Z,10.37
2019-03-27T04:21:09.827Z,10.23
2019-03-27T04:23:41.230Z,10.03
2019-03-27T04:26:13.011Z,10.85
2019-03-27T04:28:44.444Z,11.30
2019-03-27T04:31:16.241Z,10.90
2019-03-27T04:33:47.664Z,10.40
2019-03-27T04:36:19.067Z,10.70
2019-03-27T04:38:50.477Z,9.83
2019-03-27T04:41:21.983Z,9.67
2019-03-27T04:43:53.410Z,10.73
2019-03-27T04:46:25.145Z,10.30
2019-03-27T04:48:56.532Z,9.93
2019-03-27T04:51:28.169Z,9.53
2019-03-27T04:53:59.638Z,11.47
2019-03-27T04:56:31.107Z,10.50
2019-03-27T04:59:03.338Z,10.40
2019-03-27T05:01:35.051Z,10.23
2019-03-27T05:04:08.281Z,11.03
2019-03-27T05:06:39.721Z,10.70
2019-03-27T05:09:11.218Z,10.67
2019-03-27T05:11:42.625Z,9.90
2019-03-27T05:14:14.355Z,11.23
2019-03-27T05:16:46.116Z,11.68
2019-03-27T05:19:17.561Z,10.53
2019-03-27T05:21:49.224Z,11.50
2019-03-27T05:24:20.672Z,11.13
2019-03-27T05:26:52.092Z,10.07
2019-03-27T05:29:23.561Z,10.63
2019-03-27T05:31:55.191Z,11.10
2019-03-27T05:34:26.614Z,12.20
2019-03-27T05:36:58.341Z,11.60
2019-03-27T05:39:29.874Z,11.57
2019-03-27T05:42:01.293Z,12.90
2019-03-27T05:44:32.754Z,11.17
2019-03-27T05:47:04.515Z,11.30
2019-03-27T05:49:36.180Z,10.63
2019-03-27T05:52:07.636Z,10.65
2019-03-27T05:54:39.292Z,11.27
2019-03-27T05:57:10.731Z,11.07
2019-03-27T05:59:42.257Z,11.80
2019-03-27T06:02:13.675Z,10.80
2019-03-27T06:04:45.198Z,11.57
2019-03-27T06:07:16.879Z,11.70
2019-03-27T06:09:48.289Z,12.17
2019-03-27T06:12:19.784Z,12.33
2019-03-27T06:14:51.185Z,11.87
2019-03-27T06:17:22.635Z,11.50
2019-03-27T06:19:54.286Z,12.33
2019-03-27T06:22:25.753Z,11.97
2019-03-27T06:24:57.337Z,12.10
2019-03-27T06:27:28.804Z,11.77
2019-03-27T06:30:00.407Z,13.13
2019-03-27T06:32:31.805Z,13.13
2019-03-27T06:35:03.583Z,13.20
2019-03-27T06:37:35.267Z,12.60
2019-03-27T06:40:07.863Z,11.40
2019-03-27T06:42:39.465Z,11.93
2019-03-27T06:45:11.103Z,11.80
2019-03-27T06:47:42.530Z,12.27
2019-03-27T06:50:14.265Z,13.20
2019-03-27T06:52:45.706Z,12.97
2019-03-27T06:55:17.618Z,12.58
2019-03-27T06:57:49.031Z,13.47
2019-03-27T07:00:32.764Z,12.43
2019-03-27T07:03:04.336Z,12.63
2019-03-27T07:05:35.793Z,11.73
2019-03-27T07:08:07.659Z,11.50
2019-03-27T07:10:39.392Z,12.03
2019-03-27T07:13:11.136Z,11.77
2019-03-27T07:15:42.615Z,12.63
2019-03-27T07:18:14.360Z,12.98
2019-03-27T07:20:45.891Z,12.70
2019-03-27T07:23:17.857Z,12.65
2019-03-27T07:25:49.320Z,12.67
2019-03-27T07:28:21.101Z,12.07
2019-03-27T07:30:52.575Z,12.07
2019-03-27T07:33:24.136Z,15.10
2019-03-27T07:35:55.621Z,12.97
2019-03-27T07:38:27.351Z,11.83
2019-03-27T07:40:58.758Z,12.27
2019-03-27T07:43:30.425Z,12.57
2019-03-27T07:46:03.704Z,12.60
2019-03-27T07:48:35.475Z,12.30
2019-03-27T07:51:06.976Z,13.13
2019-03-27T07:53:38.361Z,11.20
2019-03-27T07:56:09.860Z,10.83
2019-03-27T07:58:41.499Z,11.40
2019-03-27T08:01:13.183Z,11.10
2019-03-27T08:03:44.810Z,10.40
2019-03-27T08:06:16.727Z,10.72
2019-03-27T08:08:48.583Z,9.93
2019-03-27T08:11:20.020Z,9.00
2019-03-27T08:13:51.705Z,9.30
2019-03-27T08:16:23.664Z,9.73
2019-03-27T08:19:06.980Z,9.33
2019-03-27T08:21:31.216Z,7.90
2019-03-27T08:24:01.701Z,8.50
2019-03-27T08:26:33.128Z,8.90
2019-03-27T08:29:04.864Z,9.23
2019-03-27T08:31:36.584Z,9.00
2019-03-27T08:34:08.041Z,8.80
2019-03-27T08:36:39.681Z,8.23
2019-03-27T08:39:11.346Z,7.97
2019-03-27T08:41:42.828Z,7.63
2019-03-27T08:44:14.591Z,6.97
2019-03-27T08:46:46.037Z,4.23
2019-03-27T08:49:22.336Z,4.80
2019-03-27T08:51:50.989Z,3.80
2019-03-27T08:54:22.749Z,2.97
2019-03-27T08:56:54.471Z,3.17
2019-03-27T08:59:25.912Z,2.80
2019-03-27T09:01:57.545Z,3.27
2019-03-27T09:04:28.983Z,3.93
2019-03-27T09:07:00.704Z,3.62
2019-03-27T09:09:32.170Z,4.07
2019-03-27T09:12:04.107Z,4.37
2019-03-27T09:14:36.371Z,3.90
2019-03-27T09:17:07.812Z,3.75
2019-03-27T09:19:39.522Z,4.12
2019-03-27T09:22:11.271Z,4.40
2019-03-27T09:24:42.741Z,3.87
2019-03-27T09:27:14.199Z,3.70
2019-03-27T09:29:45.630Z,3.63
2019-03-27T09:32:17.325Z,3.60
2019-03-27T09:34:48.753Z,4.07
2019-03-27T09:37:20.471Z,3.40
2019-03-27T09:39:53.428Z,3.90
2019-03-27T09:42:24.859Z,4.10
2019-03-27T09:44:56.295Z,3.90
2019-03-27T09:47:27.763Z,3.70
2019-03-27T09:49:59.256Z,3.67
2019-03-27T09:52:30.646Z,3.60
2019-03-27T09:55:03.355Z,3.77
2019-03-27T09:57:34.856Z,3.97
2019-03-27T10:00:07.308Z,3.93
2019-03-27T10:02:38.749Z,4.00
2019-03-27T10:05:10.510Z,3.77
2019-03-27T10:07:41.988Z,3.60
2019-03-27T10:10:14.001Z,3.70
2019-03-27T10:12:45.483Z,3.93
2019-03-27T10:15:16.966Z,3.03
2019-03-27T10:17:48.454Z,2.40
2019-03-27T10:20:19.937Z,2.63
2019-03-27T10:22:51.613Z,2.15
2019-03-27T10:25:23.437Z,3.23
2019-03-27T10:27:54.909Z,3.00
2019-03-27T10:30:26.426Z,2.70
2019-03-27T10:32:57.886Z,2.67
2019-03-27T10:35:29.367Z,2.60
2019-03-27T10:38:00.859Z,2.97
2019-03-27T10:40:32.298Z,3.10
2019-03-27T10:43:05.987Z,3.22
2019-03-27T10:45:37.447Z,2.93
2019-03-27T10:48:08.854Z,2.87
2019-03-27T10:50:40.376Z,2.80
2019-03-27T10:53:12.083Z,2.80
2019-03-27T10:55:43.777Z,3.07
2019-03-27T10:58:15.563Z,3.08
2019-03-27T11:00:47.029Z,3.73
2019-03-27T11:03:18.802Z,3.50
2019-03-27T11:05:50.218Z,3.20
2019-03-27T11:08:22.169Z,3.62
2019-03-27T11:10:53.780Z,2.70
2019-03-27T11:13:25.249Z,3.70
2019-03-27T11:15:56.984Z,3.07
2019-03-27T11:18:28.520Z,2.73
2019-03-27T11:20:59.993Z,2.60
2019-03-27T11:23:31.477Z,2.60
2019-03-27T11:26:04.187Z,2.58
2019-03-27T11:28:35.837Z,2.63
2019-03-27T11:31:07.635Z,2.60
2019-03-27T11:33:39.045Z,2.40
2019-03-27T11:36:10.505Z,2.70
2019-03-27T11:38:41.985Z,2.63
2019-03-27T11:41:14.107Z,2.42
2019-03-27T11:43:54.703Z,2.20
2019-03-27T11:46:19.316Z,2.70
2019-03-27T11:48:51.009Z,2.10
2019-03-27T11:51:22.459Z,2.55
2019-03-27T11:53:53.960Z,2.47
2019-03-27T11:56:25.514Z,2.10
2019-03-27T11:58:56.935Z,2.13
2019-03-27T12:01:39.186Z,2.23
2019-03-27T12:04:01.595Z,2.23
2019-03-27T12:06:33.102Z,2.30
2019-03-27T12:09:05.998Z,2.43
2019-03-27T12:11:37.939Z,2.37
2019-03-27T12:14:12.259Z,1.93
2019-03-27T12:16:42.985Z,1.90
2019-03-27T12:19:14.598Z,2.37
2019-03-27T12:21:46.106Z,2.50
2019-03-27T12:24:17.716Z,2.00
2019-03-27T12:26:49.103Z,2.60
2019-03-27T12:29:20.581Z,2.30
2019-03-27T12:31:52.257Z,2.33
2019-03-27T12:34:23.935Z,2.37
2019-03-27T12:36:55.423Z,2.73
2019-03-27T12:39:27.125Z,2.53
2019-03-27T12:41:58.569Z,3.00
2019-03-27T12:44:30.135Z,3.30
2019-03-27T12:47:01.636Z,2.43
2019-03-27T12:49:33.218Z,2.30
2019-03-27T12:52:05.572Z,2.20
2019-03-27T12:54:37.158Z,2.20
2019-03-27T12:57:08.571Z,1.98
2019-03-27T12:59:40.059Z,2.20
2019-03-27T13:02:11.830Z,2.10
2019-03-27T13:04:43.287Z,2.40
2019-03-27T13:07:14.836Z,2.02
2019-03-27T13:09:46.232Z,2.33
2019-03-27T13:12:17.686Z,2.17
2019-03-27T13:14:50.488Z,2.07
2019-03-27T13:17:22.671Z,2.12
2019-03-27T13:19:54.144Z,2.37
2019-03-27T13:22:25.678Z,2.27
2019-03-27T13:24:57.287Z,2.27
2019-03-27T13:27:28.753Z,2.40
2019-03-27T13:30:00.391Z,1.90
2019-03-27T13:32:32.128Z,2.07
2019-03-27T13:35:04.541Z,2.00
2019-03-27T13:37:36.253Z,2.00
2019-03-27T13:40:09.007Z,2.03
2019-03-27T13:42:40.483Z,1.70
2019-03-27T13:45:12.724Z,2.03
2019-03-27T13:47:44.182Z,2.30
2019-03-27T13:50:17.889Z,2.17
2019-03-27T13:52:49.330Z,2.10
2019-03-27T13:55:20.759Z,2.15
2019-03-27T13:57:52.309Z,1.53
2019-03-27T14:00:25.204Z,2.12
2019-03-27T14:02:56.621Z,1.80
2019-03-27T14:05:28.263Z,2.40
2019-03-27T14:07:59.811Z,1.73
2019-03-27T14:10:31.511Z,1.80
2019-03-27T14:13:04.603Z,1.70
2019-03-27T14:15:36.479Z,2.13
2019-03-27T14:18:08.245Z,1.50
2019-03-27T14:20:39.651Z,2.00
2019-03-27T14:23:11.266Z,1.77
2019-03-27T14:25:42.696Z,2.13
2019-03-27T14:28:14.632Z,2.65
2019-03-27T14:30:57.575Z,2.73
2019-03-27T14:33:29.362Z,2.27
2019-03-27T14:36:01.129Z,1.72
2019-03-27T14:38:32.905Z,1.97
2019-03-27T14:41:04.559Z,1.83
2019-03-27T14:43:36.296Z,1.73
2019-03-27T14:46:08.162Z,2.50
2019-03-27T14:48:39.634Z,1.80
2019-03-27T14:51:11.554Z,2.00
2019-03-27T14:53:43.307Z,2.30
2019-03-27T14:56:14.743Z,2.10
2019-03-27T14:58:46.347Z,2.23
2019-03-27T15:01:18.082Z,2.00
2019-03-27T15:03:49.557Z,2.13
2019-03-27T15:06:25.679Z,2.02
2019-03-27T15:08:57.508Z,1.90
2019-03-27T15:11:29.377Z,1.87
2019-03-27T15:14:00.849Z,1.80
2019-03-27T15:16:32.296Z,2.00
2019-03-27T15:19:04.740Z,1.70
2019-03-27T15:21:36.470Z,2.20
2019-03-27T15:24:08.308Z,2.10
2019-03-27T15:26:40.074Z,1.63
2019-03-27T15:29:11.858Z,1.93
2019-03-27T15:31:43.503Z,1.93
2019-03-27T15:34:15.316Z,2.17
2019-03-27T15:36:46.814Z,2.20
2019-03-27T15:39:18.570Z,1.80
2019-03-27T15:41:50.064Z,2.20
2019-03-27T15:44:21.806Z,2.20
2019-03-27T15:46:53.389Z,2.33
2019-03-27T15:49:24.864Z,2.37
2019-03-27T15:51:56.672Z,2.10
2019-03-27T15:54:28.119Z,2.17
2019-03-27T15:57:00.071Z,2.33
2019-03-27T15:59:31.533Z,1.93
2019-03-27T16:02:04.280Z,2.23
2019-03-27T16:04:38.669Z,2.60
2019-03-27T16:07:08.952Z,2.00
2019-03-27T16:09:40.614Z,1.77
2019-03-27T16:12:12.676Z,2.20
2019-03-27T16:14:44.475Z,2.20
2019-03-27T16:17:16.247Z,2.40
2019-03-27T16:19:47.742Z,2.00
2019-03-27T16:22:19.230Z,1.95
2019-03-27T16:24:50.826Z,1.97
2019-03-27T16:27:22.848Z,2.37
2019-03-27T16:29:54.455Z,2.30
2019-03-27T16:32:26.181Z,2.30
2019-03-27T16:34:57.689Z,2.20
2019-03-27T16:37:29.154Z,1.90
2019-03-27T16:40:00.672Z,2.03
2019-03-27T16:42:32.170Z,2.27
2019-03-27T16:45:05.257Z,2.00
2019-03-27T16:47:36.778Z,2.30
2019-03-27T16:50:13.721Z,2.20
2019-03-27T16:52:46.782Z,1.70
2019-03-27T16:55:18.770Z,2.10
2019-03-27T16:57:51.433Z,2.20
2019-03-27T17:00:23.077Z,2.20
2019-03-27T17:02:54.643Z,2.20
2019-03-27T17:05:26.060Z,2.30
2019-03-27T17:07:57.695Z,1.87
2019-03-27T17:10:29.415Z,2.37
2019-03-27T17:13:00.986Z,2.00
2019-03-27T17:15:32.805Z,2.50
2019-03-27T17:18:05.488Z,2.43
2019-03-27T17:20:36.885Z,1.80
2019-03-27T17:23:18.057Z,2.30
2019-03-27T17:25:42.180Z,2.00
2019-03-27T17:28:13.890Z,2.35
2019-03-27T17:30:45.679Z,1.90
2019-03-27T17:33:17.159Z,2.07
2019-03-27T17:35:48.695Z,1.97
2019-03-27T17:38:20.833Z,2.20
2019-03-27T17:40:52.302Z,1.80
2019-03-27T17:43:24.072Z,2.17
2019-03-27T17:45:56.286Z,1.90
2019-03-27T17:48:27.764Z,2.07
2019-03-27T17:50:59.254Z,2.40
2019-03-27T17:53:31.944Z,2.03
2019-03-27T17:56:04.937Z,2.05
2019-03-27T17:58:36.617Z,2.27
2019-03-27T18:01:08.597Z,2.00
2019-03-27T18:03:40.250Z,2.27
2019-03-27T18:06:14.893Z,2.60
2019-03-27T18:08:46.857Z,2.80
2019-03-27T18:11:18.954Z,2.50
2019-03-27T18:13:50.678Z,2.77
2019-03-27T18:16:22.299Z,3.50
2019-03-27T18:18:54.001Z,3.87
2019-03-27T18:21:25.519Z,3.30
2019-03-27T18:23:57.030Z,3.87
2019-03-27T18:26:28.990Z,3.33
2019-03-27T18:29:00.704Z,3.58
2019-03-27T18:31:32.223Z,3.20
2019-03-27T18:34:05.086Z,3.47
2019-03-27T18:36:36.896Z,2.97
2019-03-27T18:39:10.748Z,2.90
2019-03-27T18:41:42.222Z,3.30
2019-03-27T18:44:13.917Z,3.00
2019-03-27T18:46:45.398Z,3.00
2019-03-27T18:49:17.117Z,3.00
2019-03-27T18:51:48.594Z,3.43
2019-03-27T18:54:20.329Z,3.77
2019-03-27T18:56:53.255Z,3.80
2019-03-27T18:59:24.803Z,4.23
2019-03-27T19:01:56.310Z,4.20
2019-03-27T19:04:27.841Z,4.23
2019-03-27T19:06:59.348Z,4.40
2019-03-27T19:09:30.964Z,4.67
2019-03-27T19:12:02.641Z,4.03
2019-03-27T19:14:34.131Z,4.93
2019-03-27T19:17:05.936Z,6.00
2019-03-27T19:19:37.470Z,5.83
2019-03-27T19:22:09.186Z,6.85
2019-03-27T19:24:41.071Z,5.33
2019-03-27T19:27:12.590Z,4.40
2019-03-27T19:29:45.062Z,4.17
2019-03-27T19:32:17.949Z,4.00
2019-03-27T19:34:51.084Z,3.90
2019-03-27T19:37:22.996Z,3.77
2019-03-27T19:39:54.490Z,3.77
2019-03-27T19:42:26.154Z,3.80
2019-03-27T19:44:57.601Z,4.33
2019-03-27T19:47:29.148Z,4.47
2019-03-27T19:50:01.052Z,5.57
2019-03-27T19:52:32.526Z,4.60
2019-03-27T19:55:05.468Z,5.20
2019-03-27T19:57:37.242Z,5.00
2019-03-27T20:00:10.611Z,4.92
2019-03-27T20:02:42.121Z,5.43
2019-03-27T20:05:14.006Z,5.15
2019-03-27T20:07:45.490Z,4.90
2019-03-27T20:10:17.398Z,5.20
2019-03-27T20:12:49.186Z,5.70
2019-03-27T20:15:20.700Z,6.47
2019-03-27T20:17:52.188Z,5.23
2019-03-27T20:20:24.085Z,5.70
2019-03-27T20:22:55.520Z,6.73
2019-03-27T20:25:27.220Z,6.60
2019-03-27T20:27:59.227Z,6.30
2019-03-27T20:30:30.793Z,5.37
2019-03-27T20:33:02.325Z,5.20
2019-03-27T20:35:34.223Z,5.60
2019-03-27T20:38:05.777Z,5.90
2019-03-27T20:40:37.292Z,5.90
2019-03-27T20:43:09.395Z,5.70
2019-03-27T20:45:41.237Z,6.20
2019-03-27T20:48:12.713Z,5.67
2019-03-27T20:50:44.453Z,6.03
2019-03-27T20:53:16.202Z,5.80
2019-03-27T20:55:47.781Z,5.37
2019-03-27T20:58:19.419Z,5.67
2019-03-27T21:00:51.555Z,5.60
2019-03-27T21:03:23.304Z,5.00
2019-03-27T21:05:59.693Z,5.67
2019-03-27T21:08:28.394Z,5.40
2019-03-27T21:11:00.224Z,5.57
2019-03-27T21:13:31.788Z,5.10
2019-03-27T21:16:03.296Z,5.10
2019-03-27T21:18:34.789Z,5.03
2019-03-27T21:21:06.579Z,5.80
2019-03-27T21:23:38.191Z,5.73
2019-03-27T21:26:09.904Z,5.83
2019-03-27T21:28:41.410Z,5.90
2019-03-27T21:31:13.466Z,5.55
2019-03-27T21:33:45.383Z,6.17
2019-03-27T21:36:18.212Z,5.65
2019-03-27T21:38:49.693Z,5.77
2019-03-27T21:41:21.544Z,6.12
2019-03-27T21:43:53.179Z,6.10
2019-03-27T21:46:24.719Z,5.73
2019-03-27T21:48:56.376Z,5.80
2019-03-27T21:51:27.839Z,5.23
2019-03-27T21:53:59.265Z,5.37
2019-03-27T21:56:30.793Z,5.33
2019-03-27T21:59:02.694Z,5.23
2019-03-27T22:01:34.243Z,5.40
2019-03-27T22:04:05.773Z,5.73
2019-03-27T22:06:37.391Z,5.50
2019-03-27T22:09:09.932Z,5.53
2019-03-27T22:11:41.380Z,5.60
2019-03-27T22:14:13.446Z,6.08
2019-03-27T22:16:45.230Z,6.67
2019-03-27T22:19:16.676Z,6.20
2019-03-27T22:21:48.393Z,6.23
2019-03-27T22:24:19.886Z,6.10
2019-03-27T22:26:51.387Z,6.17
2019-03-27T22:29:23.133Z,6.33
2019-03-27T22:31:54.595Z,6.10
2019-03-27T22:34:26.213Z,5.70
2019-03-27T22:36:57.685Z,5.90
2019-03-27T22:39:29.394Z,5.70
2019-03-27T22:42:00.885Z,5.73
2019-03-27T22:44:32.439Z,5.67
2019-03-27T22:47:05.620Z,5.36
2019-03-27T22:49:37.244Z,5.50
2019-03-27T22:52:09.085Z,5.47
2019-03-27T22:54:40.534Z,5.67
2019-03-27T22:57:12.056Z,5.15
2019-03-27T22:59:44.728Z,5.37
2019-03-27T23:02:16.421Z,5.67
2019-03-27T23:04:47.926Z,5.20
2019-03-27T23:07:19.551Z,5.08
2019-03-27T23:09:51.078Z,7.20
2019-03-27T23:12:22.840Z,5.57
2019-03-27T23:14:54.400Z,5.13
2019-03-27T23:17:25.936Z,5.73
2019-03-27T23:19:57.444Z,6.13
2019-03-27T23:22:28.868Z,5.70
2019-03-27T23:25:00.646Z,6.17
2019-03-27T23:27:32.028Z,5.40
2019-03-27T23:30:03.442Z,5.50
2019-03-27T23:32:34.972Z,5.83
2019-03-27T23:35:07.335Z,5.37
2019-03-27T23:37:38.727Z,5.90
2019-03-27T23:40:11.456Z,5.00
2019-03-27T23:42:42.870Z,5.50
2019-03-27T23:45:14.853Z,5.40
2019-03-27T23:47:46.474Z,4.93
2019-03-27T23:50:17.928Z,5.25
2019-03-27T23:52:49.700Z,5.63
2019-03-27T23:55:21.667Z,4.85
2019-03-27T23:57:53.146Z,5.20
